Time;durP1;ratioP1;P1;durP2;ratioP2;P2;SDS_P1;SDS_P2;PMS_P1;PMS_P2;Temp;Humidity;BMP_temperature;BMP_pressure;BME280_temperature;BME280_humidity;BME280_pressure;Samples;Min_cycle;Max_cycle;Signal;HPM_P1;HPM_P2
2021/03/17 06:30:42;;;;;;;17.07;9.13;;;;;;;0.91;79.50;100213.72;1737964;77;27223;-64
2021/03/17 06:33:09;;;;;;;17.27;9.98;;;;;;;0.96;79.45;100221.52;1699870;84;25331;-65
2021/03/17 06:35:36;;;;;;;18.40;10.38;;;;;;;0.99;79.47;100219.66;1699947;84;25738;-65
2021/03/17 06:38:03;;;;;;;17.35;10.32;;;;;;;1.03;79.45;100218.94;1700089;84;25524;-64
2021/03/17 06:40:37;;;;;;;14.05;9.10;;;;;;;1.06;79.34;100229.10;1700107;84;25301;-65
2021/03/17 06:43:13;;;;;;;16.52;9.35;;;;;;;1.10;79.33;100225.41;1700608;83;25618;-66
2021/03/17 06:45:47;;;;;;;13.43;7.78;;;;;;;1.15;79.31;100226.01;1701632;84;25536;-66
2021/03/17 06:48:29;;;;;;;19.05;9.13;;;;;;;1.19;79.24;100220.45;1701705;84;25723;-65
2021/03/17 06:51:20;;;;;;;16.77;9.70;;;;;;;1.24;79.24;100224.51;1701614;84;25268;-65
2021/03/17 06:53:55;;;;;;;18.17;9.15;;;;;;;1.29;79.09;100225.91;1700342;84;25448;-66
2021/03/17 06:56:30;;;;;;;16.30;9.08;;;;;;;1.36;79.11;100229.71;1693885;82;25651;-66
2021/03/17 06:59:05;;;;;;;16.73;8.78;;;;;;;1.40;79.00;100238.30;1651978;85;25778;-65
2021/03/17 07:01:36;;;;;;;16.50;10.00;;;;;;;1.45;79.06;100238.36;1674743;84;25856;-65
2021/03/17 07:04:25;;;;;;;14.43;9.30;;;;;;;1.52;79.00;100246.17;1701401;83;25755;-65
2021/03/17 07:07:03;;;;;;;18.37;9.68;;;;;;;1.56;78.95;100239.27;1693088;82;25503;-66
2021/03/17 07:09:31;;;;;;;18.52;9.18;;;;;;;1.58;78.79;100245.69;1720198;82;25543;-65
2021/03/17 07:12:11;;;;;;;17.62;9.20;;;;;;;1.60;78.86;100247.06;1714766;82;25676;-64
2021/03/17 07:14:42;;;;;;;17.32;9.68;;;;;;;1.62;78.73;100243.61;1722508;83;25768;-65
2021/03/17 07:17:30;;;;;;;17.07;9.33;;;;;;;1.66;78.73;100245.25;1716325;83;25659;-65
2021/03/17 07:19:57;;;;;;;18.98;9.18;;;;;;;1.69;78.75;100246.09;1715311;83;25440;-65
2021/03/17 07:22:25;;;;;;;18.10;10.30;;;;;;;1.73;78.70;100251.72;1716188;83;25549;-66
2021/03/17 07:25:02;;;;;;;18.17;10.00;;;;;;;1.76;78.68;100243.22;1716381;83;25379;-66
2021/03/17 07:27:32;;;;;;;21.85;11.30;;;;;;;1.79;78.67;100242.19;1714803;83;25937;-66
2021/03/17 07:30:06;;;;;;;21.17;10.45;;;;;;;1.83;78.67;100247.28;1713057;83;25837;-66
2021/03/17 07:33:06;;;;;;;18.90;10.03;;;;;;;1.88;78.58;100246.53;1712272;82;25283;-65
2021/03/17 07:35:38;;;;;;;19.42;10.95;;;;;;;1.92;78.55;100240.17;1713016;83;25743;-66
2021/03/17 07:38:08;;;;;;;19.17;10.18;;;;;;;1.96;78.46;100246.59;1717544;83;25484;-65
2021/03/17 07:40:39;;;;;;;18.65;10.55;;;;;;;2.03;78.66;100244.55;1703512;83;26725;-65
2021/03/17 07:43:06;;;;;;;17.48;10.23;;;;;;;2.10;78.50;100241.68;1701501;84;25318;-66
2021/03/17 07:45:34;;;;;;;18.77;9.75;;;;;;;2.17;78.56;100242.27;1698096;84;25583;-65
2021/03/17 07:48:07;;;;;;;20.90;10.65;;;;;;;2.21;78.35;100242.02;1686759;84;26077;-65
2021/03/17 07:50:37;;;;;;;15.70;9.70;;;;;;;2.27;78.39;100238.34;1670664;84;25572;-66
2021/03/17 07:53:11;;;;;;;18.57;10.48;;;;;;;2.35;78.44;100239.72;1666171;85;26690;-66
2021/03/17 07:55:39;;;;;;;18.73;10.60;;;;;;;2.42;78.37;100234.45;1666139;85;43254;-67
2021/03/17 07:58:07;;;;;;;23.18;12.18;;;;;;;2.49;78.24;100240.92;1645202;86;25709;-65
2021/03/17 08:00:35;;;;;;;19.75;10.78;;;;;;;2.53;78.03;100246.00;1645754;85;25958;-65
2021/03/17 08:03:04;;;;;;;20.15;11.15;;;;;;;2.58;78.00;100238.03;1668261;86;25621;-69
2021/03/17 08:05:32;;;;;;;21.10;10.58;;;;;;;2.59;77.79;100238.86;1680270;83;25718;-67
2021/03/17 08:08:01;;;;;;;18.65;10.93;;;;;;;2.61;77.65;100245.53;1703490;83;25655;-66
2021/03/17 08:10:27;;;;;;;21.80;11.00;;;;;;;2.62;77.51;100244.99;1698832;83;26537;-66
2021/03/17 08:12:55;;;;;;;16.17;10.00;;;;;;;2.64;77.46;100246.08;1652230;85;25285;-66
2021/03/17 08:15:24;;;;;;;18.15;10.03;;;;;;;2.63;77.39;100250.63;1654491;84;25730;-67
2021/03/17 08:17:51;;;;;;;20.95;11.03;;;;;;;2.63;77.46;100249.28;1681150;85;26812;-67
2021/03/17 08:20:27;;;;;;;17.73;9.45;;;;;;;2.64;77.28;100248.75;1681420;85;25261;-66
2021/03/17 08:22:57;;;;;;;17.10;9.93;;;;;;;2.61;77.25;100253.55;1682004;85;25722;-67
2021/03/17 08:25:44;;;;;;;19.02;10.23;;;;;;;2.64;77.27;100248.23;1666027;85;25548;-67
2021/03/17 08:28:23;;;;;;;17.75;9.88;;;;;;;2.66;77.25;100250.66;1698824;83;25768;-66
2021/03/17 08:30:53;;;;;;;16.60;10.18;;;;;;;2.70;77.33;100245.86;1698512;83;25719;-67
2021/03/17 08:33:39;;;;;;;16.82;9.75;;;;;;;2.78;77.59;100245.38;1698932;84;25417;-66
2021/03/17 08:36:13;;;;;;;17.37;10.10;;;;;;;2.85;77.59;100241.14;1701841;83;25564;-66
2021/03/17 08:38:51;;;;;;;18.17;9.83;;;;;;;2.96;77.67;100238.81;1699271;84;25465;-68
2021/03/17 08:41:44;;;;;;;15.87;9.20;;;;;;;3.08;77.69;100239.94;1699143;84;26124;-68
2021/03/17 08:44:21;;;;;;;14.10;8.88;;;;;;;3.17;76.94;100241.58;1699184;83;25795;-67
2021/03/17 08:46:50;;;;;;;14.25;9.05;;;;;;;3.23;77.06;100239.19;1696120;84;25540;-67
2021/03/17 08:49:36;;;;;;;14.40;8.70;;;;;;;3.27;76.73;100242.96;1700581;83;25621;-67
2021/03/17 08:52:22;;;;;;;15.30;8.55;;;;;;;3.32;76.77;100244.83;1699040;84;25561;-66
2021/03/17 08:54:56;;;;;;;15.75;8.55;;;;;;;3.41;76.71;100243.81;1699507;84;25600;-66
2021/03/17 08:57:59;;;;;;;16.17;9.20;;;;;;;3.54;76.39;100236.10;1848882;76;34883;-67
2021/03/17 09:00:58;;;;;;;18.60;10.10;;;;;;;3.56;76.48;100245.20;1819007;78;25610;-67
2021/03/17 09:03:43;;;;;;;13.88;8.80;;;;;;;3.60;76.08;100246.27;1737477;81;25901;-68
2021/03/17 09:06:22;;;;;;;14.90;8.83;;;;;;;3.61;75.72;100250.56;1724689;82;25609;-67
2021/03/17 09:09:03;;;;;;;13.35;8.55;;;;;;;3.61;75.56;100246.55;1732506;82;25679;-67
2021/03/17 09:11:35;;;;;;;14.00;8.33;;;;;;;3.60;75.29;100251.63;1732005;82;25577;-67
2021/03/17 09:14:07;;;;;;;14.85;9.25;;;;;;;3.55;75.05;100250.27;1693080;84;25555;-68
2021/03/17 09:16:37;;;;;;;17.32;9.03;;;;;;;3.53;75.07;100247.06;1723475;83;25699;-67
2021/03/17 09:19:12;;;;;;;19.02;9.28;;;;;;;3.53;75.25;100255.88;1669543;84;25635;-67
2021/03/17 09:21:46;;;;;;;18.62;10.18;;;;;;;3.64;75.40;100258.04;1888747;76;34662;-67
2021/03/17 09:24:30;;;;;;;16.10;9.50;;;;;;;3.59;75.24;100257.23;1859593;77;25275;-67
2021/03/17 09:27:03;;;;;;;16.30;9.53;;;;;;;3.58;75.02;100256.44;1859519;77;25764;-67
2021/03/17 09:29:29;;;;;;;17.67;9.63;;;;;;;3.55;74.85;100260.42;1859512;77;25526;-67
2021/03/17 09:31:56;;;;;;;13.78;8.58;;;;;;;3.54;74.81;100258.84;1859736;76;25309;-67
2021/03/17 09:34:31;;;;;;;15.83;9.68;;;;;;;3.54;74.91;100262.84;1859496;76;25557;-66
2021/03/17 09:37:07;;;;;;;14.78;8.93;;;;;;;3.53;74.80;100262.56;1859659;77;25498;-68
2021/03/17 09:39:47;;;;;;;15.20;9.58;;;;;;;3.50;74.63;100269.77;1859597;77;25758;-68
2021/03/17 09:42:18;;;;;;;16.30;9.68;;;;;;;3.48;74.60;100277.80;1859743;77;25301;-68
2021/03/17 09:44:45;;;;;;;15.43;9.65;;;;;;;3.46;74.69;100274.59;1859633;77;25495;-68
2021/03/17 09:47:11;;;;;;;16.17;9.38;;;;;;;3.45;74.69;100281.78;1859456;77;25522;-68
2021/03/17 09:49:38;;;;;;;14.78;9.13;;;;;;;3.41;74.48;100278.03;1866559;76;25691;-67
2021/03/17 09:52:05;;;;;;;16.55;9.93;;;;;;;3.37;74.59;100275.59;1765304;79;27284;-67
2021/03/17 09:54:34;;;;;;;18.85;10.65;;;;;;;3.36;74.66;100276.68;1762770;81;25568;-67
2021/03/17 09:57:06;;;;;;;15.37;9.53;;;;;;;3.34;74.68;100278.27;1784343;80;25336;-69
2021/03/17 09:59:44;;;;;;;12.68;8.78;;;;;;;3.32;74.63;100280.41;1763922;81;25629;-68
2021/03/17 10:02:26;;;;;;;14.10;8.70;;;;;;;3.33;74.81;100276.66;1784251;80;25302;-67
2021/03/17 10:04:56;;;;;;;15.93;8.88;;;;;;;3.35;74.83;100281.23;1773296;79;27132;-67
2021/03/17 10:07:27;;;;;;;14.55;8.58;;;;;;;3.39;74.88;100283.36;1798994;79;25477;-67
2021/03/17 10:09:56;;;;;;;11.43;7.85;;;;;;;3.40;74.81;100275.63;1795612;79;25837;-67
2021/03/17 10:12:29;;;;;;;13.70;8.50;;;;;;;3.41;74.71;100281.25;1778474;80;25459;-68
2021/03/17 10:15:03;;;;;;;16.55;8.78;;;;;;;3.44;74.73;100287.39;1801857;79;25342;-68
2021/03/17 10:17:33;;;;;;;14.87;9.63;;;;;;;3.42;74.43;100279.62;1778439;79;27272;-68
2021/03/17 10:20:14;;;;;;;15.80;9.13;;;;;;;3.41;74.42;100289.27;1802321;79;25599;-68
2021/03/17 10:22:42;;;;;;;13.68;8.45;;;;;;;3.40;74.48;100291.13;1774056;80;25550;-66
2021/03/17 10:25:16;;;;;;;15.00;8.48;;;;;;;3.41;74.46;100294.08;1796768;79;25659;-67
2021/03/17 10:27:49;;;;;;;13.98;8.35;;;;;;;3.42;74.50;100289.53;1773964;79;25540;-67
2021/03/17 10:30:33;;;;;;;15.78;9.35;;;;;;;3.40;74.42;100289.78;1796771;79;25700;-69
2021/03/17 10:33:11;;;;;;;17.73;9.88;;;;;;;3.42;74.37;100288.19;1773437;80;25503;-68
2021/03/17 10:35:39;;;;;;;15.15;9.70;;;;;;;3.44;74.43;100281.53;1796391;79;25494;-68
2021/03/17 10:38:08;;;;;;;14.07;8.73;;;;;;;3.47;74.50;100290.34;1774335;80;25472;-68
2021/03/17 10:40:37;;;;;;;15.35;8.93;;;;;;;3.48;74.43;100281.81;1796098;79;25649;-68
2021/03/17 10:43:11;;;;;;;16.62;9.20;;;;;;;3.51;74.33;100285.30;1796098;79;26610;-67
2021/03/17 10:45:50;;;;;;;14.73;9.08;;;;;;;3.52;74.23;100287.72;1795727;79;25496;-67
2021/03/17 10:48:25;;;;;;;14.70;8.33;;;;;;;3.54;74.21;100284.75;1825093;78;25499;-67
2021/03/17 10:50:55;;;;;;;12.50;8.60;;;;;;;3.57;74.15;100282.91;1824861;78;25536;-67
2021/03/17 10:53:29;;;;;;;17.15;9.70;;;;;;;3.57;73.95;100284.23;1825047;78;25532;-67
2021/03/17 10:56:01;;;;;;;18.12;10.13;;;;;;;3.55;73.83;100283.16;1824827;78;25857;-68
2021/03/17 10:58:34;;;;;;;22.35;11.45;;;;;;;3.59;74.03;100280.77;1824847;78;25528;-66
2021/03/17 11:01:02;;;;;;;16.02;9.60;;;;;;;3.69;74.07;100275.98;1823947;78;25604;-67
2021/03/17 11:06:20;;;;;;;18.20;10.82;;;;;;;4.08;74.47;100277.67;1849272;76;34661;-64
2021/03/17 11:09:07;;;;;;;14.75;9.13;;;;;;;4.19;74.28;100280.36;1842175;77;25342;-65
2021/03/17 11:11:51;;;;;;;17.25;9.43;;;;;;;4.29;73.75;100288.39;1821177;77;25688;-66
2021/03/17 11:14:35;;;;;;;20.70;10.23;;;;;;;4.38;73.31;100280.66;1817283;79;26226;-66
2021/03/17 11:17:07;;;;;;;12.43;8.23;;;;;;;4.41;72.97;100284.12;1817199;79;25256;-65
2021/03/17 11:19:35;;;;;;;10.75;7.20;;;;;;;4.38;72.31;100280.11;1818276;77;25249;-65
2021/03/17 11:22:02;;;;;;;12.82;7.90;;;;;;;4.37;72.16;100279.84;1817215;79;25484;-66
2021/03/17 11:24:28;;;;;;;13.30;8.73;;;;;;;4.39;72.17;100286.27;1817256;79;27009;-64
2021/03/17 11:26:55;;;;;;;14.63;7.85;;;;;;;4.39;72.27;100280.91;1817128;79;25286;-65
2021/03/17 11:29:29;;;;;;;14.30;8.05;;;;;;;4.42;72.08;100283.85;1817127;78;25529;-65
2021/03/17 11:32:08;;;;;;;17.17;8.13;;;;;;;4.44;72.06;100276.38;1817101;79;25529;-65
2021/03/17 11:34:36;;;;;;;12.07;7.85;;;;;;;4.49;72.09;100276.38;1816481;78;25610;-64
2021/03/17 11:37:03;;;;;;;12.00;8.03;;;;;;;4.47;71.68;100281.17;1816930;79;25781;-64
2021/03/17 11:39:29;;;;;;;12.55;7.72;;;;;;;4.46;71.50;100278.77;1816862;79;25486;-67
2021/03/17 11:41:57;;;;;;;13.98;6.97;;;;;;;4.46;71.58;100284.12;1816845;78;25485;-67
2021/03/17 11:44:24;;;;;;;11.73;7.22;;;;;;;4.51;71.82;100274.74;1813445;79;25248;-67
2021/03/17 11:46:51;;;;;;;11.88;7.03;;;;;;;4.52;71.40;100274.23;1808539;78;26042;-67
2021/03/17 11:49:18;;;;;;;11.55;6.80;;;;;;;4.52;71.38;100276.36;1811222;78;25718;-66
2021/03/17 11:51:45;;;;;;;8.85;6.28;;;;;;;4.54;71.33;100276.89;1817413;79;25539;-64
2021/03/17 11:54:12;;;;;;;10.53;6.35;;;;;;;4.59;71.49;100280.91;1838232;77;25356;-64
2021/03/17 11:56:41;;;;;;;10.55;6.30;;;;;;;4.62;71.18;100272.88;1847064;77;25519;-62
2021/03/17 11:59:09;;;;;;;10.05;6.08;;;;;;;4.64;71.09;100277.42;1817233;79;25541;-62
2021/03/17 12:01:36;;;;;;;11.50;7.05;;;;;;;4.64;70.86;100275.54;1812875;78;26521;-64
2021/03/17 12:04:02;;;;;;;10.32;6.22;;;;;;;4.66;70.82;100276.61;1807488;77;25824;-63
2021/03/17 12:06:31;;;;;;;11.18;6.25;;;;;;;4.73;71.09;100269.09;1791053;77;25547;-66
2021/03/17 12:08:57;;;;;;;10.30;6.35;;;;;;;4.80;71.08;100276.86;1788126;77;25599;-65
2021/03/17 12:11:24;;;;;;;10.72;6.35;;;;;;;4.85;70.82;100276.85;1804264;78;25534;-63
2021/03/17 12:13:52;;;;;;;10.50;5.47;;;;;;;4.84;70.28;100273.38;1814564;78;27974;-64
2021/03/17 12:16:19;;;;;;;11.53;6.72;;;;;;;4.85;70.21;100275.52;1785590;80;25641;-63
2021/03/17 12:18:48;;;;;;;9.08;6.10;;;;;;;4.83;70.11;100273.64;1786208;80;25529;-63
2021/03/17 12:21:17;;;;;;;12.15;7.10;;;;;;;4.81;69.95;100273.12;1786342;80;25524;-64
2021/03/17 12:23:44;;;;;;;;;;;;;;;4.81;69.93;100279.81;1789115;80;25257;-63
2021/03/17 12:26:11;;;;;;;9.63;5.45;;;;;;;4.76;69.79;100273.12;1786280;80;25773;-64
2021/03/17 12:28:38;;;;;;;9.30;5.55;;;;;;;4.65;69.38;100271.01;1786259;80;25510;-65
2021/03/17 12:31:05;;;;;;;9.40;5.45;;;;;;;4.61;69.66;100272.05;1804272;77;25624;-64
2021/03/17 12:33:32;;;;;;;9.80;6.03;;;;;;;4.63;69.91;100282.50;1797327;77;25584;-65
2021/03/17 12:35:59;;;;;;;7.92;5.20;;;;;;;4.70;70.06;100279.55;1806040;77;25561;-65
2021/03/17 12:38:26;;;;;;;8.15;5.30;;;;;;;4.78;70.03;100282.48;1792192;78;25769;-65
2021/03/17 12:40:53;;;;;;;10.63;5.33;;;;;;;4.82;69.65;100280.89;1786365;80;25570;-65
2021/03/17 12:43:21;;;;;;;8.93;4.95;;;;;;;4.85;69.34;100283.55;1802280;78;25465;-64
2021/03/17 12:45:50;;;;;;;8.43;5.22;;;;;;;4.82;69.04;100283.57;1818440;78;25553;-64
2021/03/17 12:48:16;;;;;;;11.68;6.30;;;;;;;4.81;68.87;100288.66;1818744;78;26147;-67
2021/03/17 12:50:46;;;;;;;13.78;6.67;;;;;;;4.79;68.71;100292.69;1818904;78;26235;-63
2021/03/17 12:53:12;;;;;;;12.88;7.03;;;;;;;4.75;68.84;100292.43;1818532;78;26222;-63
2021/03/17 12:55:38;;;;;;;18.48;8.33;;;;;;;4.75;68.83;100295.63;1818581;78;25539;-64
2021/03/17 12:58:05;;;;;;;15.70;8.00;;;;;;;4.72;68.85;100287.61;1818472;78;25550;-64
2021/03/17 13:00:31;;;;;;;16.82;8.13;;;;;;;4.67;68.54;100299.13;1818543;78;25518;-64
2021/03/17 13:02:58;;;;;;;12.53;6.78;;;;;;;4.61;68.63;100291.36;1818584;78;25890;-65
2021/03/17 13:05:25;;;;;;;11.22;6.08;;;;;;;4.57;68.56;100295.11;1818323;78;25588;-64
2021/03/17 13:07:52;;;;;;;14.03;6.83;;;;;;;4.52;68.58;100292.98;1846628;77;25252;-66
2021/03/17 13:10:23;;;;;;;8.83;6.25;;;;;;;4.50;68.77;100293.24;1779930;80;25461;-64
2021/03/17 13:12:50;;;;;;;14.03;6.62;;;;;;;4.53;68.94;100287.87;1738521;80;25604;-64
2021/03/17 13:15:18;;;;;;;11.68;6.70;;;;;;;4.57;68.88;100291.09;1720158;83;25787;-64
2021/03/17 13:17:45;;;;;;;9.90;6.42;;;;;;;4.57;68.74;100289.75;1775143;78;25664;-65
2021/03/17 13:20:16;;;;;;;14.55;7.55;;;;;;;4.58;68.89;100291.37;1760008;79;25628;-64
2021/03/17 13:22:44;;;;;;;9.73;6.50;;;;;;;4.64;69.04;100294.30;1796145;79;25309;-65
2021/03/17 13:25:12;;;;;;;16.23;7.87;;;;;;;4.72;68.99;100292.97;1783584;80;25447;-65
2021/03/17 13:27:41;;;;;;;12.55;7.20;;;;;;;4.81;69.08;100293.22;1799520;79;26799;-65
2021/03/17 13:30:10;;;;;;;15.28;7.55;;;;;;;4.88;68.76;100297.76;1778310;80;25147;-65
2021/03/17 13:32:40;;;;;;;20.35;8.13;;;;;;;4.90;68.43;100294.81;1750510;82;25186;-65
2021/03/17 13:35:09;;;;;;;101.50;24.30;;;;;;;4.89;68.25;100291.85;1750154;82;25553;-65
2021/03/17 13:37:37;;;;;;;51.60;15.58;;;;;;;4.91;67.95;100297.77;1753794;81;25633;-65
2021/03/17 13:40:08;;;;;;;26.17;10.18;;;;;;;4.92;68.21;100304.72;1750152;82;25711;-66
2021/03/17 13:42:44;;;;;;;21.75;8.73;;;;;;;4.92;68.07;100301.52;1753436;81;25506;-66
2021/03/17 13:45:16;;;;;;;15.35;8.88;;;;;;;4.95;68.05;100296.94;1750134;81;25522;-66
2021/03/17 13:47:43;;;;;;;13.78;8.08;;;;;;;4.96;68.03;100301.23;1753456;81;25506;-67
2021/03/17 13:50:18;;;;;;;12.98;7.90;;;;;;;4.95;68.08;100306.31;1728245;82;25548;-67
2021/03/17 13:52:46;;;;;;;13.53;7.10;;;;;;;4.98;68.23;100307.12;1756415;81;25706;-66
2021/03/17 13:55:13;;;;;;;13.20;8.28;;;;;;;5.01;68.24;100311.16;1756707;81;25575;-65
2021/03/17 13:57:40;;;;;;;12.82;7.53;;;;;;;5.01;68.04;100311.16;1756731;81;25346;-66
2021/03/17 14:00:12;;;;;;;11.68;7.87;;;;;;;4.96;67.79;100316.52;1756811;81;25680;-66
2021/03/17 14:02:41;;;;;;;13.28;7.45;;;;;;;4.91;67.95;100313.85;1756732;81;25521;-66
2021/03/17 14:05:10;;;;;;;14.98;8.75;;;;;;;4.87;68.03;100318.95;1756198;81;25698;-64
2021/03/17 14:07:38;;;;;;;13.28;8.03;;;;;;;4.84;68.06;100320.83;1752890;81;25554;-64
2021/03/17 14:10:12;;;;;;;14.85;8.28;;;;;;;4.80;68.10;100324.58;1752823;81;25580;-65
2021/03/17 14:12:40;;;;;;;13.15;8.10;;;;;;;4.76;68.17;100322.70;1752843;81;25203;-65
2021/03/17 14:15:11;;;;;;;14.35;8.38;;;;;;;4.74;68.25;100321.63;1752836;81;25557;-65
2021/03/17 14:17:38;;;;;;;17.62;8.70;;;;;;;4.72;68.36;100321.10;1752751;81;26608;-65
2021/03/17 14:20:10;;;;;;;17.55;8.83;;;;;;;4.70;68.37;100324.59;1757935;80;25522;-66
2021/03/17 14:22:38;;;;;;;15.10;8.25;;;;;;;4.68;68.42;100323.52;1764592;81;26208;-65
2021/03/17 14:25:08;;;;;;;14.00;8.48;;;;;;;4.67;68.25;100326.46;1781485;80;25598;-66
2021/03/17 14:27:36;;;;;;;17.73;10.05;;;;;;;4.62;68.37;100325.92;1750645;82;25574;-65
2021/03/17 14:30:05;;;;;;;15.68;9.88;;;;;;;4.59;68.50;100331.02;1750665;82;26647;-66
2021/03/17 14:32:32;;;;;;;18.67;10.70;;;;;;;4.58;68.58;100335.58;1781670;80;25576;-65
2021/03/17 14:34:58;;;;;;;15.63;9.15;;;;;;;4.56;68.58;100332.34;1750460;82;25296;-65
2021/03/17 14:37:25;;;;;;;16.37;9.35;;;;;;;4.53;68.64;100335.58;1781548;80;25637;-65
2021/03/17 14:39:53;;;;;;;27.50;15.45;;;;;;;4.50;68.75;100340.12;1750594;81;25285;-66
2021/03/17 14:42:19;;;;;;;18.57;11.45;;;;;;;4.46;68.85;100342.53;1750622;81;25974;-65
2021/03/17 14:44:46;;;;;;;17.23;10.93;;;;;;;4.43;68.90;100336.36;1781406;80;25736;-65
2021/03/17 14:47:13;;;;;;;16.30;9.55;;;;;;;4.39;68.84;100342.00;1750696;82;25532;-65
2021/03/17 14:49:40;;;;;;;17.30;9.65;;;;;;;4.36;68.91;100344.38;1781503;80;25518;-66
2021/03/17 14:52:07;;;;;;;17.62;9.43;;;;;;;4.29;68.89;100341.95;1750484;81;25525;-65
2021/03/17 14:54:35;;;;;;;18.57;9.43;;;;;;;4.23;68.94;100345.70;1749788;82;25905;-65
2021/03/17 14:57:04;;;;;;;20.08;10.82;;;;;;;4.19;69.03;100345.95;1750410;82;25260;-65
2021/03/17 14:59:30;;;;;;;19.45;10.38;;;;;;;4.17;69.17;100350.27;1750603;82;25524;-66
2021/03/17 15:01:58;;;;;;;21.85;12.58;;;;;;;4.15;69.22;100358.27;1781376;80;25570;-65
2021/03/17 15:04:26;;;;;;;19.30;11.68;;;;;;;4.10;69.26;100352.36;1750608;81;25634;-67
2021/03/17 15:06:53;;;;;;;17.92;10.23;;;;;;;4.06;69.42;100360.66;1750501;81;26620;-66
2021/03/17 15:09:20;;;;;;;20.95;11.95;;;;;;;4.03;69.49;100367.33;1781619;80;25573;-66
2021/03/17 15:11:47;;;;;;;28.42;18.07;;;;;;;4.03;69.66;100366.53;1750451;81;25575;-65
2021/03/17 15:14:14;;;;;;;34.33;18.17;;;;;;;4.04;69.86;100366.81;1750414;82;25583;-66
2021/03/17 15:16:40;;;;;;;33.95;17.12;;;;;;;4.02;69.85;100372.94;1781414;80;25491;-65
2021/03/17 15:19:07;;;;;;;22.73;12.50;;;;;;;4.01;69.95;100378.84;1750481;82;26684;-66
2021/03/17 15:21:33;;;;;;;17.75;10.98;;;;;;;3.99;70.04;100376.17;1750547;80;25676;-66
2021/03/17 15:24:00;;;;;;;19.40;11.12;;;;;;;3.98;70.08;100383.37;1757246;80;25589;-65
2021/03/17 15:26:28;;;;;;;30.95;16.80;;;;;;;3.96;70.12;100382.84;1750426;81;25275;-64
2021/03/17 15:28:55;;;;;;;16.02;9.90;;;;;;;3.95;70.09;100383.09;1726984;82;25737;-64
2021/03/17 15:31:23;;;;;;;17.10;10.55;;;;;;;3.91;70.06;100386.29;1749036;82;25709;-65
2021/03/17 15:33:51;;;;;;;19.17;12.13;;;;;;;3.89;70.08;100388.97;1759880;80;25702;-66
2021/03/17 15:36:17;;;;;;;19.12;11.05;;;;;;;3.87;70.10;100391.91;1734037;82;25331;-66
2021/03/17 15:38:44;;;;;;;17.80;11.38;;;;;;;3.85;69.98;100391.91;1733873;82;25915;-66
2021/03/17 15:41:11;;;;;;;18.77;11.33;;;;;;;3.85;70.06;100399.94;1733220;82;25508;-66
2021/03/17 15:43:37;;;;;;;21.95;11.53;;;;;;;3.85;70.14;100400.73;1733625;82;25810;-65
2021/03/17 15:46:04;;;;;;;19.73;10.40;;;;;;;3.85;70.05;100404.75;1733970;82;25523;-64
2021/03/17 15:48:30;;;;;;;23.90;12.20;;;;;;;3.84;69.94;100406.34;1733993;82;25494;-65
2021/03/17 15:50:57;;;;;;;19.45;10.98;;;;;;;3.82;70.00;100412.50;1733902;82;25724;-65
2021/03/17 15:53:24;;;;;;;15.63;9.45;;;;;;;3.79;69.93;100418.36;1734441;82;25533;-65
2021/03/17 15:55:50;;;;;;;15.75;9.93;;;;;;;3.79;69.89;100422.38;1760654;81;25824;-65
2021/03/17 15:58:18;;;;;;;17.85;10.53;;;;;;;3.77;69.95;100423.17;1763891;81;25550;-67
2021/03/17 16:00:45;;;;;;;19.25;11.57;;;;;;;3.77;69.90;100423.97;1764744;81;25368;-65
2021/03/17 16:03:12;;;;;;;25.72;13.13;;;;;;;3.77;69.94;100430.66;1764726;81;25470;-66
2021/03/17 16:05:39;;;;;;;18.90;11.57;;;;;;;3.76;69.93;100428.24;1763746;81;25275;-65
2021/03/17 16:08:06;;;;;;;19.62;10.50;;;;;;;3.73;69.87;100430.37;1755661;81;25706;-66
2021/03/17 16:10:33;;;;;;;17.87;10.63;;;;;;;3.72;69.93;100427.42;1755545;81;25524;-67
2021/03/17 16:13:00;;;;;;;18.55;10.28;;;;;;;3.68;69.91;100434.37;1752998;81;25265;-67
2021/03/17 16:15:28;;;;;;;12.93;8.50;;;;;;;3.66;69.90;100433.83;1755540;81;25656;-65
2021/03/17 16:17:56;;;;;;;17.45;10.78;;;;;;;3.62;69.88;100437.27;1755658;81;25471;-65
2021/03/17 16:20:27;;;;;;;17.48;10.43;;;;;;;3.58;69.94;100441.54;1755663;81;25949;-65
2021/03/17 16:22:54;;;;;;;15.05;9.68;;;;;;;3.55;69.95;100451.66;1755488;81;25353;-65
2021/03/17 16:25:22;;;;;;;17.50;10.10;;;;;;;3.53;70.11;100445.77;1755532;81;25286;-65
2021/03/17 16:27:50;;;;;;;14.95;9.25;;;;;;;3.50;70.12;100458.86;1755448;81;25464;-65
2021/03/17 16:30:21;;;;;;;12.60;8.25;;;;;;;3.48;70.29;100455.64;1755560;81;25584;-65
2021/03/17 16:32:48;;;;;;;14.35;9.48;;;;;;;3.45;70.24;100452.94;1755563;81;26326;-67
2021/03/17 16:35:17;;;;;;;15.48;9.65;;;;;;;3.44;70.32;100451.34;1755363;81;25590;-65
2021/03/17 16:37:44;;;;;;;11.37;7.57;;;;;;;3.42;70.27;100455.32;1755831;81;25490;-66
2021/03/17 16:40:12;;;;;;;18.95;8.68;;;;;;;3.39;70.21;100455.31;1755533;81;25472;-66
2021/03/17 16:42:38;;;;;;;12.93;9.00;;;;;;;3.35;70.22;100459.04;1746382;81;25318;-68
2021/03/17 16:45:06;;;;;;;15.83;8.75;;;;;;;3.32;70.31;100463.56;1742063;81;25803;-65
2021/03/17 16:47:33;;;;;;;17.55;9.58;;;;;;;3.31;70.37;100465.95;1755524;81;25523;-67
2021/03/17 16:49:59;;;;;;;18.17;9.25;;;;;;;3.30;70.46;100471.03;1754883;80;25488;-67
2021/03/17 16:52:26;;;;;;;17.25;10.53;;;;;;;3.28;70.49;100477.14;1743528;81;25544;-66
2021/03/17 16:54:53;;;;;;;23.65;11.80;;;;;;;3.28;70.51;100474.47;1726337;81;26092;-67
2021/03/17 16:57:20;;;;;;;18.87;11.03;;;;;;;3.27;70.50;100478.73;1751809;80;27330;-66
2021/03/17 16:59:46;;;;;;;21.30;11.57;;;;;;;3.25;70.50;100478.19;1710163;80;25614;-65
2021/03/17 17:02:12;;;;;;;15.03;8.60;;;;;;;3.19;70.37;100476.02;1765249;80;25696;-66
2021/03/17 17:04:41;;;;;;;16.67;9.78;;;;;;;3.13;70.31;100480.52;1746154;79;25566;-65
2021/03/17 17:07:07;;;;;;;18.57;10.05;;;;;;;3.11;70.34;100479.95;1728960;81;25544;-66
2021/03/17 17:09:33;;;;;;;19.85;11.43;;;;;;;3.06;70.22;100483.12;1724679;83;25782;-66
2021/03/17 17:12:00;;;;;;;26.35;14.05;;;;;;;3.00;70.16;100487.62;1724450;82;25540;-66
2021/03/17 17:14:26;;;;;;;43.90;21.00;;;;;;;2.94;70.23;100486.74;1724710;82;25510;-66
2021/03/17 17:16:52;;;;;;;56.83;27.02;;;;;;;2.88;70.19;100489.62;1724539;82;25601;-67
2021/03/17 17:19:19;;;;;;;52.65;25.48;;;;;;;2.83;70.20;100489.06;1724667;82;25501;-68
2021/03/17 17:21:45;;;;;;;38.30;20.65;;;;;;;2.75;70.11;100492.18;1724596;82;27086;-68
2021/03/17 17:24:12;;;;;;;26.97;16.20;;;;;;;2.70;70.10;100489.45;1724563;82;25591;-68
2021/03/17 17:26:39;;;;;;;30.48;15.65;;;;;;;2.65;70.09;100492.08;1724544;83;25643;-66
2021/03/17 17:29:05;;;;;;;25.00;14.43;;;;;;;2.60;70.17;100497.63;1724614;82;25398;-67
2021/03/17 17:31:32;;;;;;;26.68;14.43;;;;;;;2.59;70.25;100496.56;1752329;81;25669;-66
2021/03/17 17:33:58;;;;;;;24.15;12.95;;;;;;;2.55;70.25;100500.23;1736709;82;26630;-65
2021/03/17 17:36:25;;;;;;;22.65;12.43;;;;;;;2.54;70.27;100506.66;1721216;83;25551;-67
2021/03/17 17:38:51;;;;;;;21.37;11.35;;;;;;;2.50;70.22;100502.85;1752312;81;25548;-67
2021/03/17 17:41:18;;;;;;;27.75;12.03;;;;;;;2.49;70.29;100501.80;1757875;80;25590;-67
2021/03/17 17:43:45;;;;;;;19.27;11.68;;;;;;;2.47;70.24;100506.05;1752907;81;25424;-67
2021/03/17 17:46:11;;;;;;;20.30;11.30;;;;;;;2.44;70.28;100511.87;1772193;80;25714;-67
2021/03/17 17:48:38;;;;;;;18.07;10.45;;;;;;;2.43;70.29;100510.25;1759028;79;25507;-67
2021/03/17 17:51:05;;;;;;;18.27;10.28;;;;;;;2.41;70.29;100511.03;1783599;80;25449;-68
2021/03/17 17:53:31;;;;;;;18.73;11.20;;;;;;;2.40;70.40;100512.08;1783780;80;25407;-68
2021/03/17 17:55:58;;;;;;;31.73;15.88;;;;;;;2.38;70.36;100518.20;1784149;80;25649;-66
2021/03/17 17:58:25;;;;;;;21.65;11.55;;;;;;;2.36;70.34;100514.98;1784211;80;26663;-67
2021/03/17 18:00:52;;;;;;;19.62;10.23;;;;;;;2.34;70.35;100515.76;1783770;79;25313;-69
2021/03/17 18:03:19;;;;;;;16.62;10.50;;;;;;;2.30;70.37;100519.45;1784197;80;26263;-67
2021/03/17 18:05:45;;;;;;;19.80;11.53;;;;;;;2.28;70.44;100516.20;1776285;79;25619;-67
2021/03/17 18:08:12;;;;;;;21.23;12.18;;;;;;;2.27;70.54;100519.95;1747876;79;25938;-67